Time;durP1;ratioP1;P1;durP2;ratioP2;P2;SDS_P1;SDS_P2;PMS_P1;PMS_P2;Temp;Humidity;BMP_temperature;BMP_pressure;BME280_temperature;BME280_humidity;BME280_pressure;Samples;Min_cycle;Max_cycle;Signal;HPM_P1;HPM_P2
2023/01/16 00:01:16;;;;;;;2.55;0.80;;;;;;;;;;5094339;28;20528;-55
2023/01/16 00:03:43;;;;;;;3.23;0.90;;;;;;;;;;5093793;28;20328;-56
2023/01/16 00:06:10;;;;;;;2.63;1.10;;;;;;;;;;5094145;28;20485;-52
2023/01/16 00:08:37;;;;;;;1.00;0.80;;;;;;;;;;5094244;28;20193;-52
2023/01/16 00:11:04;;;;;;;0.90;0.70;;;;;;;;;;5094216;28;20187;-55
2023/01/16 00:13:33;;;;;;;1.07;0.87;;;;;;;;;;5093978;28;20191;-55
2023/01/16 00:16:00;;;;;;;1.42;1.33;;;;;;;;;;5094235;28;20460;-57
2023/01/16 00:18:27;;;;;;;5.55;1.25;;;;;;;;;;5094202;28;20617;-56
2023/01/16 00:20:54;;;;;;;1.00;0.70;;;;;;;;;;5094175;28;20604;-56
2023/01/16 00:23:21;;;;;;;2.30;1.00;;;;;;;;;;5094037;28;20188;-56
2023/01/16 00:25:48;;;;;;;2.00;0.77;;;;;;;;;;5093807;28;20448;-50
2023/01/16 00:28:15;;;;;;;2.50;0.90;;;;;;;;;;5093844;28;20453;-55
2023/01/16 00:30:44;;;;;;;2.17;0.70;;;;;;;;;;5093969;28;20491;-52
2023/01/16 00:33:11;;;;;;;1.52;0.90;;;;;;;;;;5093911;28;20192;-55
2023/01/16 00:35:38;;;;;;;0.90;0.80;;;;;;;;;;5093802;28;20309;-49
2023/01/16 00:38:05;;;;;;;2.05;0.75;;;;;;;;;;5093651;28;20196;-57
2023/01/16 00:40:32;;;;;;;1.00;0.90;;;;;;;;;;5093586;28;20273;-52
2023/01/16 00:42:59;;;;;;;1.23;0.80;;;;;;;;;;5093776;28;20475;-56
2023/01/16 00:45:26;;;;;;;0.87;0.80;;;;;;;;;;5093345;28;20692;-55
2023/01/16 00:47:54;;;;;;;2.03;0.90;;;;;;;;;;5093725;28;20828;-54
2023/01/16 00:50:21;;;;;;;1.85;1.13;;;;;;;;;;5093518;28;20202;-52
2023/01/16 00:52:48;;;;;;;1.25;0.60;;;;;;;;;;5093654;28;20278;-49
2023/01/16 00:55:15;;;;;;;1.02;0.80;;;;;;;;;;5093222;28;20213;-55
2023/01/16 00:57:42;;;;;;;0.90;0.77;;;;;;;;;;5093556;28;20301;-55
2023/01/16 01:00:09;;;;;;;1.15;0.70;;;;;;;;;;5093500;28;20194;-54
2023/01/16 01:02:36;;;;;;;2.20;0.85;;;;;;;;;;5093423;28;20466;-55
2023/01/16 01:05:06;;;;;;;1.23;0.80;;;;;;;;;;5093330;28;20199;-54
2023/01/16 01:07:32;;;;;;;2.15;0.80;;;;;;;;;;5093164;28;20227;-49
2023/01/16 01:09:59;;;;;;;1.98;0.80;;;;;;;;;;5093140;28;20192;-53
2023/01/16 01:12:26;;;;;;;1.83;0.70;;;;;;;;;;5093324;28;20551;-55
2023/01/16 01:14:53;;;;;;;1.73;0.85;;;;;;;;;;5093279;28;20215;-50
2023/01/16 01:17:20;;;;;;;2.10;0.80;;;;;;;;;;5092392;28;20195;-49
2023/01/16 01:19:47;;;;;;;2.73;1.00;;;;;;;;;;5093109;28;20199;-51
2023/01/16 01:22:16;;;;;;;2.55;0.80;;;;;;;;;;5093054;28;20540;-50
2023/01/16 01:24:44;;;;;;;1.83;0.90;;;;;;;;;;5093190;28;20191;-56
2023/01/16 01:27:11;;;;;;;2.63;0.90;;;;;;;;;;5093263;28;20197;-52
2023/01/16 01:29:38;;;;;;;2.30;1.00;;;;;;;;;;5093066;28;20453;-56
2023/01/16 01:32:05;;;;;;;3.05;1.27;;;;;;;;;;5093064;28;20194;-56
2023/01/16 01:34:33;;;;;;;2.37;1.00;;;;;;;;;;5092829;28;20215;-56
2023/01/16 01:37:00;;;;;;;1.07;0.97;;;;;;;;;;5092833;28;20965;-53
2023/01/16 01:39:29;;;;;;;2.70;1.00;;;;;;;;;;5093092;28;20804;-55
2023/01/16 01:42:41;;;;;;;2.30;1.10;;;;;;;;;;5092963;28;20456;-52
2023/01/16 01:44:47;;;;;;;1.48;1.25;;;;;;;;;;5092644;28;20640;-51
2023/01/16 01:47:15;;;;;;;1.00;0.70;;;;;;;;;;5092846;28;20191;-51
2023/01/16 01:49:43;;;;;;;1.38;0.90;;;;;;;;;;5093018;28;20245;-56
2023/01/16 01:52:11;;;;;;;1.63;0.93;;;;;;;;;;5092915;28;20194;-49
2023/01/16 01:54:42;;;;;;;0.88;0.70;;;;;;;;;;5092639;28;20668;-56
2023/01/16 01:57:10;;;;;;;1.35;0.73;;;;;;;;;;5092736;28;20674;-55
2023/01/16 01:59:40;;;;;;;0.80;0.70;;;;;;;;;;5092634;28;20191;-51
2023/01/16 02:02:07;;;;;;;2.30;0.87;;;;;;;;;;5092920;28;20192;-51
2023/01/16 02:04:37;;;;;;;2.60;1.03;;;;;;;;;;5092767;28;20534;-51
2023/01/16 02:07:06;;;;;;;1.10;0.90;;;;;;;;;;5092734;28;20531;-50
2023/01/16 02:09:33;;;;;;;5.18;0.93;;;;;;;;;;5092661;28;20451;-53
2023/01/16 02:12:02;;;;;;;2.67;0.88;;;;;;;;;;5092619;28;20191;-55
2023/01/16 02:14:30;;;;;;;1.57;1.00;;;;;;;;;;5092415;28;20651;-55
2023/01/16 02:20:09;;;;;;;1.88;0.90;;;;;;;;;;5030222;28;20272;-56
2023/01/16 02:22:48;;;;;;;1.48;0.90;;;;;;;;;;5030183;28;20193;-49
2023/01/16 02:25:42;;;;;;;3.40;1.38;;;;;;;;;;5067009;28;20195;-55
2023/01/16 02:28:22;;;;;;;3.17;1.10;;;;;;;;;;5094598;28;20662;-55
2023/01/16 02:31:04;;;;;;;1.37;0.70;;;;;;;;;;5096090;28;20807;-55
2023/01/16 02:33:39;;;;;;;5.05;0.90;;;;;;;;;;5096327;28;21012;-52
2023/01/16 02:36:11;;;;;;;1.10;0.67;;;;;;;;;;5096147;28;20228;-49
2023/01/16 02:38:45;;;;;;;1.00;0.90;;;;;;;;;;5096120;28;20460;-51
2023/01/16 02:41:16;;;;;;;3.17;0.80;;;;;;;;;;5096048;28;20448;-56
2023/01/16 02:43:48;;;;;;;1.20;0.70;;;;;;;;;;5095672;28;20202;-55
2023/01/16 02:46:21;;;;;;;1.30;1.20;;;;;;;;;;5095981;28;20465;-56
2023/01/16 02:48:51;;;;;;;1.70;0.90;;;;;;;;;;5095982;28;20292;-53
2023/01/16 02:51:24;;;;;;;3.28;0.95;;;;;;;;;;5095795;28;20196;-55
2023/01/16 02:53:56;;;;;;;1.53;0.73;;;;;;;;;;5095695;28;20276;-52
2023/01/16 02:56:25;;;;;;;3.22;0.85;;;;;;;;;;5095905;28;20485;-50
2023/01/16 02:58:53;;;;;;;1.25;0.80;;;;;;;;;;5095785;28;20191;-53
2023/01/16 03:01:21;;;;;;;1.10;0.90;;;;;;;;;;5095610;28;20234;-52
2023/01/16 03:03:50;;;;;;;2.03;0.90;;;;;;;;;;5095528;28;20195;-52
2023/01/16 03:06:24;;;;;;;0.88;0.70;;;;;;;;;;5095427;28;20944;-52
2023/01/16 03:08:55;;;;;;;0.80;0.60;;;;;;;;;;5095639;28;20192;-54
2023/01/16 03:11:24;;;;;;;2.10;0.90;;;;;;;;;;5095516;28;20547;-52
2023/01/16 03:14:03;;;;;;;1.30;0.90;;;;;;;;;;5095360;28;20449;-57
2023/01/16 03:16:35;;;;;;;2.60;1.07;;;;;;;;;;5095267;28;20220;-54
2023/01/16 03:19:10;;;;;;;1.00;0.90;;;;;;;;;;5095243;28;20537;-53
2023/01/16 03:21:42;;;;;;;1.88;0.80;;;;;;;;;;5095373;28;20201;-53
2023/01/16 03:24:14;;;;;;;1.70;0.90;;;;;;;;;;5095261;28;20270;-50
2023/01/16 03:26:44;;;;;;;3.63;0.80;;;;;;;;;;5094958;28;20460;-49
2023/01/16 03:29:15;;;;;;;1.67;0.83;;;;;;;;;;5094859;28;20192;-56
2023/01/16 03:31:47;;;;;;;1.05;0.80;;;;;;;;;;5095011;28;21032;-57
2023/01/16 03:34:20;;;;;;;1.17;0.90;;;;;;;;;;5094930;28;20190;-51
2023/01/16 03:36:51;;;;;;;0.83;0.60;;;;;;;;;;5094742;28;20492;-57
2023/01/16 03:39:20;;;;;;;1.93;0.80;;;;;;;;;;5093732;28;20457;-52
2023/01/16 03:41:49;;;;;;;1.67;1.00;;;;;;;;;;5094480;28;20449;-54
2023/01/16 03:44:24;;;;;;;1.03;0.70;;;;;;;;;;5094364;28;20825;-57
2023/01/16 03:46:53;;;;;;;1.57;0.80;;;;;;;;;;5094440;28;20446;-57
2023/01/16 03:49:21;;;;;;;2.10;0.90;;;;;;;;;;5094343;28;21012;-55
2023/01/16 03:51:49;;;;;;;1.53;0.70;;;;;;;;;;5094448;28;20477;-55
2023/01/16 03:54:24;;;;;;;3.90;1.17;;;;;;;;;;5094325;28;20809;-57
2023/01/16 03:56:53;;;;;;;2.40;0.80;;;;;;;;;;5094487;28;20696;-57
2023/01/16 03:59:20;;;;;;;1.97;0.87;;;;;;;;;;5094124;28;20945;-57
2023/01/16 04:01:51;;;;;;;1.33;0.80;;;;;;;;;;5094249;28;20450;-56
2023/01/16 04:04:22;;;;;;;1.63;1.00;;;;;;;;;;5094178;28;20543;-57
2023/01/16 04:06:51;;;;;;;1.70;1.00;;;;;;;;;;5094100;28;20195;-57
2023/01/16 04:09:20;;;;;;;2.35;1.08;;;;;;;;;;5094229;28;20218;-56
2023/01/16 04:11:48;;;;;;;2.50;1.40;;;;;;;;;;5094113;28;20198;-56
2023/01/16 04:14:15;;;;;;;1.40;1.30;;;;;;;;;;5094009;28;20455;-57
2023/01/16 04:16:43;;;;;;;1.75;1.40;;;;;;;;;;5093830;28;20485;-56
2023/01/16 04:19:12;;;;;;;1.50;1.40;;;;;;;;;;5093863;28;20229;-56
2023/01/16 04:21:43;;;;;;;1.43;1.33;;;;;;;;;;5093691;28;20195;-57
2023/01/16 04:24:10;;;;;;;2.70;1.50;;;;;;;;;;5093681;28;20522;-57
2023/01/16 04:26:37;;;;;;;1.57;1.40;;;;;;;;;;5093791;28;20460;-56
2023/01/16 04:29:04;;;;;;;2.80;1.23;;;;;;;;;;5093707;28;20449;-55
2023/01/16 04:31:31;;;;;;;1.87;1.40;;;;;;;;;;5093657;28;20452;-55
2023/01/16 04:33:58;;;;;;;1.70;1.30;;;;;;;;;;5093524;28;20450;-57
2023/01/16 04:36:25;;;;;;;6.43;1.80;;;;;;;;;;5093690;28;20219;-56
2023/01/16 04:38:53;;;;;;;1.88;1.23;;;;;;;;;;5093604;28;20195;-55
2023/01/16 04:44:01;;;;;;;1.40;1.20;;;;;;;;;;5093044;28;20217;-55
2023/01/16 04:46:28;;;;;;;1.50;1.35;;;;;;;;;;5093344;28;20193;-56
2023/01/16 04:48:55;;;;;;;5.68;1.40;;;;;;;;;;5093415;28;20207;-56
2023/01/16 04:51:22;;;;;;;3.45;1.27;;;;;;;;;;5093365;28;20547;-57
2023/01/16 04:53:49;;;;;;;3.35;1.23;;;;;;;;;;5093354;28;20282;-56
2023/01/16 04:56:17;;;;;;;1.48;1.38;;;;;;;;;;5093168;28;20215;-53
2023/01/16 04:58:44;;;;;;;3.50;1.40;;;;;;;;;;5093213;28;20195;-52
2023/01/16 05:01:11;;;;;;;5.95;1.27;;;;;;;;;;5093064;28;20456;-52
2023/01/16 05:03:38;;;;;;;2.10;1.20;;;;;;;;;;5093268;28;20618;-54
2023/01/16 05:06:05;;;;;;;2.60;1.65;;;;;;;;;;5093114;28;20208;-51
2023/01/16 05:08:32;;;;;;;2.50;1.23;;;;;;;;;;5093098;28;20191;-53
2023/01/16 05:11:00;;;;;;;2.20;1.10;;;;;;;;;;5093059;28;20190;-53
2023/01/16 05:13:29;;;;;;;2.33;1.48;;;;;;;;;;5092882;28;20312;-56
2023/01/16 05:15:56;;;;;;;3.15;1.50;;;;;;;;;;5093039;28;20225;-50
2023/01/16 05:18:23;;;;;;;2.67;1.42;;;;;;;;;;5092991;28;20524;-51
2023/01/16 05:20:50;;;;;;;4.32;1.40;;;;;;;;;;5092998;28;20199;-55
2023/01/16 05:23:17;;;;;;;3.35;1.55;;;;;;;;;;5092898;28;20205;-53
2023/01/16 05:25:44;;;;;;;1.63;1.23;;;;;;;;;;5093372;28;20290;-50
2023/01/16 05:28:11;;;;;;;4.03;1.10;;;;;;;;;;5092788;28;20452;-57
2023/01/16 05:30:40;;;;;;;2.95;1.73;;;;;;;;;;5092921;28;20195;-51
2023/01/16 05:33:07;;;;;;;3.17;1.58;;;;;;;;;;5092884;28;20554;-56
2023/01/16 05:35:34;;;;;;;3.58;1.48;;;;;;;;;;5092843;28;20213;-53
2023/01/16 05:38:01;;;;;;;1.50;1.20;;;;;;;;;;5092769;28;20186;-56
2023/01/16 05:40:27;;;;;;;5.53;1.23;;;;;;;;;;5092698;28;20278;-51
2023/01/16 05:42:54;;;;;;;2.72;1.20;;;;;;;;;;5092829;28;20190;-54
2023/01/16 05:45:21;;;;;;;1.98;1.00;;;;;;;;;;5092385;28;20241;-56
2023/01/16 05:47:49;;;;;;;1.70;1.10;;;;;;;;;;5092687;28;20705;-54
2023/01/16 05:50:17;;;;;;;1.17;1.08;;;;;;;;;;5092564;28;20193;-57
2023/01/16 05:52:44;;;;;;;6.85;1.75;;;;;;;;;;5092308;28;20194;-56
2023/01/16 05:55:10;;;;;;;1.50;1.10;;;;;;;;;;5092316;28;20197;-56
2023/01/16 05:57:37;;;;;;;1.63;1.45;;;;;;;;;;5092835;28;20223;-55
2023/01/16 06:00:06;;;;;;;2.15;1.10;;;;;;;;;;5092647;28;20246;-54
2023/01/16 06:02:33;;;;;;;3.28;1.25;;;;;;;;;;5093779;28;20195;-55
2023/01/16 06:05:01;;;;;;;4.43;1.20;;;;;;;;;;5096448;28;20274;-51
2023/01/16 06:07:28;;;;;;;3.85;1.17;;;;;;;;;;5096370;28;20284;-55
2023/01/16 06:09:55;;;;;;;1.10;0.98;;;;;;;;;;5096253;28;20191;-52
2023/01/16 06:12:22;;;;;;;2.67;1.20;;;;;;;;;;5096615;28;20190;-56
2023/01/16 06:14:49;;;;;;;1.33;0.88;;;;;;;;;;5096417;28;20665;-55
2023/01/16 06:17:18;;;;;;;2.20;0.95;;;;;;;;;;5096352;28;20228;-51
2023/01/16 06:19:45;;;;;;;3.38;1.15;;;;;;;;;;5096295;28;20279;-50
2023/01/16 06:22:14;;;;;;;2.03;1.38;;;;;;;;;;5096188;28;20197;-56
2023/01/16 06:24:41;;;;;;;6.65;1.92;;;;;;;;;;5096225;28;20191;-53
2023/01/16 06:27:08;;;;;;;5.30;2.30;;;;;;;;;;5096193;28;20190;-50
2023/01/16 06:29:35;;;;;;;3.85;1.20;;;;;;;;;;5096023;28;20205;-52
2023/01/16 06:32:02;;;;;;;2.95;1.48;;;;;;;;;;5096031;28;20642;-56
2023/01/16 06:34:29;;;;;;;3.05;1.10;;;;;;;;;;5096028;28;20557;-56
2023/01/16 06:36:56;;;;;;;2.47;1.05;;;;;;;;;;5095736;28;20221;-57
2023/01/16 06:39:24;;;;;;;3.00;1.40;;;;;;;;;;5096031;28;20188;-56
2023/01/16 06:41:51;;;;;;;1.60;0.90;;;;;;;;;;5095857;28;20209;-54
2023/01/16 06:44:18;;;;;;;1.20;1.10;;;;;;;;;;5095558;28;20245;-56
2023/01/16 06:46:45;;;;;;;2.58;1.50;;;;;;;;;;5095788;28;20629;-55
2023/01/16 06:49:12;;;;;;;2.45;1.02;;;;;;;;;;5095528;28;20286;-56
2023/01/16 06:51:39;;;;;;;1.23;0.90;;;;;;;;;;5095916;28;20195;-55
2023/01/16 06:54:07;;;;;;;2.17;1.05;;;;;;;;;;5095667;28;20289;-54
2023/01/16 06:56:35;;;;;;;1.45;0.95;;;;;;;;;;5095571;28;20628;-55
2023/01/16 06:59:02;;;;;;;2.05;1.10;;;;;;;;;;5095412;28;20282;-56
2023/01/16 07:01:29;;;;;;;2.05;1.15;;;;;;;;;;5095447;28;20645;-56
2023/01/16 07:03:56;;;;;;;4.72;1.30;;;;;;;;;;5095313;28;20221;-57
2023/01/16 07:06:23;;;;;;;8.10;1.30;;;;;;;;;;5095253;28;20673;-56
2023/01/16 07:08:52;;;;;;;1.83;1.08;;;;;;;;;;5095207;28;20191;-57
2023/01/16 07:11:19;;;;;;;4.60;1.20;;;;;;;;;;5095196;28;20557;-57
2023/01/16 07:13:48;;;;;;;2.75;1.10;;;;;;;;;;5093951;28;20229;-57
2023/01/16 07:24:32;;;;;;;2.17;1.00;;;;;;;;;;5095047;28;20209;-56
2023/01/16 07:27:02;;;;;;;1.65;1.33;;;;;;;;;;5094913;28;20287;-56
2023/01/16 07:29:31;;;;;;;1.30;0.90;;;;;;;;;;5095141;28;20219;-56
2023/01/16 07:31:59;;;;;;;3.42;0.98;;;;;;;;;;5094931;28;20195;-55
2023/01/16 07:34:26;;;;;;;4.53;1.20;;;;;;;;;;5094907;28;20191;-56
2023/01/16 07:36:53;;;;;;;4.78;1.13;;;;;;;;;;5094729;28;20301;-56
2023/01/16 07:39:20;;;;;;;2.70;1.00;;;;;;;;;;5094503;28;20283;-56
2023/01/16 07:41:50;;;;;;;3.95;1.50;;;;;;;;;;5094769;28;20194;-57
2023/01/16 07:44:17;;;;;;;2.80;1.60;;;;;;;;;;5094735;28;20217;-57
2023/01/16 07:46:45;;;;;;;3.28;1.20;;;;;;;;;;5094533;28;20209;-57
2023/01/16 07:49:12;;;;;;;3.10;1.27;;;;;;;;;;5094447;28;20197;-55
2023/01/16 07:51:39;;;;;;;3.35;1.05;;;;;;;;;;5094368;28;20546;-56
2023/01/16 07:54:07;;;;;;;2.58;1.05;;;;;;;;;;5094324;28;20197;-56
2023/01/16 07:56:35;;;;;;;2.00;1.00;;;;;;;;;;5094412;28;20230;-57
2023/01/16 07:59:02;;;;;;;2.60;1.10;;;;;;;;;;5094362;28;20195;-56
2023/01/16 08:01:29;;;;;;;1.58;1.10;;;;;;;;;;5094769;28;20199;-56
2023/01/16 08:03:57;;;;;;;3.70;1.10;;;;;;;;;;5094239;28;20277;-55
2023/01/16 08:06:24;;;;;;;3.30;2.15;;;;;;;;;;5094051;28;20457;-56
2023/01/16 08:08:51;;;;;;;6.22;1.80;;;;;;;;;;5094134;28;20278;-56
2023/01/16 08:11:37;;;;;;;1.63;1.52;;;;;;;;;;5094230;28;20244;-55
2023/01/16 08:14:05;;;;;;;6.43;1.30;;;;;;;;;;5093760;28;20214;-50
2023/01/16 08:16:32;;;;;;;1.50;1.23;;;;;;;;;;5093821;28;20221;-51
2023/01/16 08:19:00;;;;;;;1.90;0.90;;;;;;;;;;5093623;28;20285;-50
2023/01/16 08:21:27;;;;;;;2.47;0.90;;;;;;;;;;5093998;28;20233;-58
2023/01/16 08:23:54;;;;;;;4.18;1.10;;;;;;;;;;5093681;28;20198;-55
2023/01/16 08:26:21;;;;;;;3.08;1.25;;;;;;;;;;5092930;28;20191;-62
2023/01/16 08:28:48;;;;;;;2.00;1.30;;;;;;;;;;5092804;28;20857;-60
2023/01/16 08:31:15;;;;;;;2.92;1.25;;;;;;;;;;5093300;28;20218;-63
2023/01/16 08:33:43;;;;;;;2.45;1.10;;;;;;;;;;5093421;28;20230;-61
2023/01/16 08:36:13;;;;;;;1.20;1.10;;;;;;;;;;5093408;28;20288;-61
2023/01/16 08:38:40;;;;;;;3.03;1.10;;;;;;;;;;5093702;28;20230;-60
2023/01/16 08:51:21;;;;;;;1.25;1.05;;;;;;;;;;5093625;28;20195;-59
2023/01/16 08:52:11;;;;;;;1.88;1.23;;;;;;;;;;5093338;28;20195;-64
2023/01/16 08:54:38;;;;;;;2.35;1.30;;;;;;;;;;5093502;28;20190;-63
2023/01/16 08:57:05;;;;;;;1.00;0.90;;;;;;;;;;5093204;28;20220;-64
2023/01/16 08:59:33;;;;;;;2.60;1.30;;;;;;;;;;5093267;28;20225;-58
2023/01/16 09:02:01;;;;;;;2.50;1.27;;;;;;;;;;5093035;28;20195;-59
2023/01/16 09:04:28;;;;;;;3.50;1.20;;;;;;;;;;5092299;28;20781;-59
2023/01/16 09:06:55;;;;;;;2.97;1.00;;;;;;;;;;5093024;28;20459;-59
2023/01/16 09:09:24;;;;;;;7.27;1.93;;;;;;;;;;5093161;28;20557;-61
2023/01/16 09:14:48;;;;;;;1.90;1.00;;;;;;;;;;5056531;28;20187;-59
2023/01/16 09:17:15;;;;;;;4.53;1.65;;;;;;;;;;5092801;28;20210;-62
2023/01/16 09:19:41;;;;;;;3.35;1.27;;;;;;;;;;5092972;28;20214;-64
2023/01/16 09:22:08;;;;;;;1.85;1.00;;;;;;;;;;5092999;28;20195;-63
2023/01/16 09:24:38;;;;;;;1.50;1.20;;;;;;;;;;5092179;28;20456;-64
2023/01/16 09:27:05;;;;;;;1.50;0.90;;;;;;;;;;5092779;28;20201;-59
2023/01/16 09:29:32;;;;;;;2.90;1.43;;;;;;;;;;5092428;28;20195;-62
2023/01/16 09:32:01;;;;;;;2.70;1.10;;;;;;;;;;5092544;28;20628;-63
2023/01/16 09:34:27;;;;;;;1.40;1.30;;;;;;;;;;5092808;28;20454;-62
2023/01/16 09:36:54;;;;;;;2.03;1.43;;;;;;;;;;5092952;28;20476;-62
2023/01/16 09:39:21;;;;;;;3.40;1.00;;;;;;;;;;5096899;28;20449;-60
2023/01/16 09:44:42;;;;;;;3.73;1.20;;;;;;;;;;5096633;28;20468;-60
2023/01/16 09:47:10;;;;;;;1.58;1.15;;;;;;;;;;5096676;28;20463;-59
2023/01/16 09:49:41;;;;;;;1.85;1.20;;;;;;;;;;5095565;28;20473;-62
2023/01/16 10:00:31;;;;;;;1.30;1.20;;;;;;;;;;5096491;28;20437;-59
2023/01/16 10:02:58;;;;;;;1.58;1.10;;;;;;;;;;5096556;28;20879;-58
2023/01/16 10:05:29;;;;;;;1.50;1.10;;;;;;;;;;5096040;28;20872;-62
2023/01/16 10:08:00;;;;;;;1.92;1.00;;;;;;;;;;5082841;28;20211;-64
2023/01/16 10:10:34;;;;;;;1.63;1.10;;;;;;;;;;5076007;28;20456;-64
2023/01/16 10:13:06;;;;;;;1.10;0.93;;;;;;;;;;5075941;28;20477;-57
2023/01/16 10:15:36;;;;;;;1.83;1.13;;;;;;;;;;5075252;28;20454;-62
2023/01/16 10:18:07;;;;;;;3.00;1.47;;;;;;;;;;5075825;28;20226;-59
2023/01/16 10:20:49;;;;;;;2.37;1.20;;;;;;;;;;5075695;28;20451;-61
2023/01/16 10:23:24;;;;;;;7.77;1.73;;;;;;;;;;5075788;28;20458;-60
2023/01/16 10:25:55;;;;;;;1.70;1.10;;;;;;;;;;5075602;28;20521;-61
2023/01/16 10:28:28;;;;;;;3.20;1.40;;;;;;;;;;5075833;28;20777;-65
2023/01/16 10:30:56;;;;;;;1.17;1.00;;;;;;;;;;5075739;28;20689;-56
2023/01/16 10:33:27;;;;;;;5.50;2.13;;;;;;;;;;5075514;28;20546;-60
2023/01/16 10:35:55;;;;;;;1.70;1.07;;;;;;;;;;5075582;28;20807;-61
2023/01/16 10:38:28;;;;;;;3.80;0.97;;;;;;;;;;5075235;28;21005;-62
2023/01/16 10:40:56;;;;;;;1.60;1.50;;;;;;;;;;5075579;28;20451;-62
2023/01/16 10:51:46;;;;;;;1.23;1.10;;;;;;;;;;5074965;28;20443;-59
2023/01/16 10:54:13;;;;;;;2.13;1.10;;;;;;;;;;5075332;28;20544;-59
2023/01/16 10:56:40;;;;;;;2.00;1.07;;;;;;;;;;5075036;28;20939;-59
2023/01/16 10:59:07;;;;;;;1.10;1.00;;;;;;;;;;5074927;28;20487;-58
2023/01/16 11:01:36;;;;;;;3.50;1.40;;;;;;;;;;5075050;28;20545;-61
2023/01/16 11:04:06;;;;;;;4.10;1.20;;;;;;;;;;5075190;28;20447;-58
2023/01/16 11:06:35;;;;;;;2.10;1.00;;;;;;;;;;5075468;28;20940;-62
2023/01/16 11:09:03;;;;;;;1.40;1.30;;;;;;;;;;5075045;28;20452;-59
2023/01/16 11:20:03;;;;;;;1.77;0.83;;;;;;;;;;5051755;28;20915;-58
2023/01/16 11:22:30;;;;;;;2.07;1.30;;;;;;;;;;5074916;28;20779;-56
2023/01/16 11:24:58;;;;;;;2.60;1.30;;;;;;;;;;5074702;28;20534;-59
2023/01/16 11:27:27;;;;;;;3.20;1.37;;;;;;;;;;5074504;28;20455;-59
2023/01/16 11:29:55;;;;;;;2.77;1.50;;;;;;;;;;5074508;28;20448;-59
2023/01/16 11:32:24;;;;;;;1.80;1.10;;;;;;;;;;5073973;28;20450;-60
2023/01/16 11:34:53;;;;;;;3.60;1.40;;;;;;;;;;5074368;28;20288;-59
2023/01/16 11:37:21;;;;;;;2.83;1.10;;;;;;;;;;5074466;28;20550;-59
2023/01/16 11:39:49;;;;;;;2.40;1.00;;;;;;;;;;5074531;28;20798;-59
2023/01/16 11:47:43;;;;;;;1.73;1.03;;;;;;;;;;5033364;28;20455;-67
2023/01/16 11:50:22;;;;;;;1.67;1.57;;;;;;;;;;5074253;28;20985;-65
2023/01/16 11:52:49;;;;;;;3.17;1.17;;;;;;;;;;5074236;28;20444;-61
2023/01/16 11:55:16;;;;;;;3.83;2.05;;;;;;;;;;5073146;28;20536;-62
2023/01/16 11:57:48;;;;;;;2.30;1.60;;;;;;;;;;5073818;28;20222;-65
2023/01/16 12:00:28;;;;;;;2.07;1.10;;;;;;;;;;5073476;28;20535;-62
2023/01/16 12:03:15;;;;;;;1.70;1.40;;;;;;;;;;5074113;28;20455;-64
2023/01/16 12:05:54;;;;;;;2.13;1.10;;;;;;;;;;5048337;28;20448;-64
2023/01/16 12:08:27;;;;;;;2.20;1.10;;;;;;;;;;5074182;28;20455;-66
2023/01/16 12:10:56;;;;;;;4.23;1.10;;;;;;;;;;5074031;28;20448;-63
2023/01/16 12:16:17;;;;;;;1.87;1.10;;;;;;;;;;5072679;28;20457;-66
2023/01/16 12:18:48;;;;;;;2.13;0.87;;;;;;;;;;5073561;28;20490;-60
2023/01/16 12:21:27;;;;;;;4.80;1.27;;;;;;;;;;5073747;28;20547;-59
2023/01/16 12:24:03;;;;;;;1.40;0.93;;;;;;;;;;5073617;28;20950;-59
2023/01/16 12:26:30;;;;;;;1.10;1.00;;;;;;;;;;5073507;28;20453;-59
2023/01/16 12:29:02;;;;;;;1.10;0.83;;;;;;;;;;5073439;28;20803;-58
2023/01/16 12:31:36;;;;;;;1.13;1.03;;;;;;;;;;5073601;28;20521;-59
2023/01/16 12:34:25;;;;;;;1.13;1.00;;;;;;;;;;5073442;28;20454;-63
2023/01/16 12:37:00;;;;;;;0.80;0.80;;;;;;;;;;5073316;28;20454;-61
2023/01/16 12:39:31;;;;;;;1.50;0.80;;;;;;;;;;5073186;28;20497;-63
2023/01/16 12:44:50;;;;;;;3.93;2.40;;;;;;;;;;5073018;28;20462;-59
2023/01/16 12:47:28;;;;;;;2.40;1.10;;;;;;;;;;5073154;28;20884;-60
2023/01/16 12:50:03;;;;;;;1.73;0.90;;;;;;;;;;5073029;28;20443;-59
2023/01/16 12:52:40;;;;;;;1.17;1.07;;;;;;;;;;5073340;28;20448;-59
2023/01/16 12:55:16;;;;;;;1.37;0.73;;;;;;;;;;5073202;28;20541;-56
2023/01/16 12:57:51;;;;;;;0.83;0.83;;;;;;;;;;5072951;28;20472;-59
2023/01/16 13:00:20;;;;;;;2.17;1.00;;;;;;;;;;5072945;28;20447;-64
2023/01/16 13:02:49;;;;;;;5.03;1.00;;;;;;;;;;5072982;28;20505;-60
2023/01/16 13:05:18;;;;;;;0.90;0.70;;;;;;;;;;5072770;28;20668;-59
2023/01/16 13:07:50;;;;;;;0.93;0.80;;;;;;;;;;5072707;28;20451;-60
2023/01/16 13:13:24;;;;;;;1.97;0.90;;;;;;;;;;5072817;28;20811;-67
2023/01/16 13:15:55;;;;;;;0.80;0.70;;;;;;;;;;5072535;28;20477;-61
2023/01/16 13:18:24;;;;;;;2.30;0.80;;;;;;;;;;5072807;28;20787;-60
2023/01/16 13:20:54;;;;;;;1.80;0.80;;;;;;;;;;5072602;28;20448;-61
2023/01/16 13:23:23;;;;;;;1.20;0.80;;;;;;;;;;5072931;28;20763;-63
2023/01/16 13:25:56;;;;;;;1.03;0.93;;;;;;;;;;5072815;28;20880;-59
2023/01/16 13:28:26;;;;;;;1.90;0.80;;;;;;;;;;5072550;28;20451;-59
2023/01/16 13:30:54;;;;;;;1.70;0.90;;;;;;;;;;5072556;28;20523;-67
2023/01/16 13:33:24;;;;;;;1.70;1.00;;;;;;;;;;5071858;28;20929;-66
2023/01/16 13:35:56;;;;;;;1.13;1.00;;;;;;;;;;5072658;28;20463;-60
2023/01/16 13:38:45;;;;;;;3.27;0.90;;;;;;;;;;5072553;28;20479;-58
2023/01/16 13:41:15;;;;;;;1.43;1.00;;;;;;;;;;5072662;28;20448;-57
2023/01/16 13:46:28;;;;;;;1.37;0.70;;;;;;;;;;5072391;28;20204;-58
2023/01/16 13:48:55;;;;;;;2.27;1.60;;;;;;;;;;5072327;28;20531;-58
2023/01/16 13:51:24;;;;;;;2.00;1.00;;;;;;;;;;5072385;28;20456;-59
2023/01/16 13:53:54;;;;;;;1.33;0.90;;;;;;;;;;5072618;28;20456;-58
2023/01/16 13:56:22;;;;;;;1.80;1.30;;;;;;;;;;5072195;28;20910;-60
2023/01/16 13:58:50;;;;;;;1.73;0.90;;;;;;;;;;5072543;28;20537;-59
2023/01/16 14:01:31;;;;;;;2.00;0.90;;;;;;;;;;5072485;28;20530;-60
2023/01/16 14:04:11;;;;;;;0.87;0.80;;;;;;;;;;5072308;28;20444;-60
2023/01/16 14:06:44;;;;;;;2.97;1.00;;;;;;;;;;5072101;28;20534;-60
2023/01/16 14:09:20;;;;;;;1.00;0.80;;;;;;;;;;5071398;28;20448;-60
2023/01/16 14:12:01;;;;;;;1.50;1.20;;;;;;;;;;5072149;28;20499;-60
2023/01/16 14:17:51;;;;;;;1.10;1.00;;;;;;;;;;5072157;28;20411;-60
2023/01/16 14:20:36;;;;;;;1.27;0.83;;;;;;;;;;5071924;28;20546;-60
2023/01/16 14:25:52;;;;;;;1.80;1.00;;;;;;;;;;5084744;28;20442;-60
2023/01/16 14:28:19;;;;;;;4.50;1.00;;;;;;;;;;5083388;28;20451;-60
2023/01/16 14:30:46;;;;;;;3.47;1.30;;;;;;;;;;5086020;28;20541;-60
2023/01/16 14:33:16;;;;;;;1.70;1.17;;;;;;;;;;5084789;28;20195;-60
2023/01/16 14:35:44;;;;;;;2.23;0.80;;;;;;;;;;5080819;28;20493;-60
2023/01/16 14:38:15;;;;;;;2.20;1.07;;;;;;;;;;5092623;28;21000;-60
2023/01/16 14:55:15;;;;;;;4.88;1.05;;;;;;;;;;5095433;28;20841;-60
2023/01/16 14:57:43;;;;;;;1.93;1.10;;;;;;;;;;5095752;28;20204;-60
2023/01/16 15:00:14;;;;;;;1.50;1.10;;;;;;;;;;5095453;28;20572;-60
2023/01/16 15:02:44;;;;;;;1.50;1.17;;;;;;;;;;5095570;28;20458;-60
2023/01/16 15:05:14;;;;;;;2.40;1.10;;;;;;;;;;5095381;28;20544;-60
2023/01/16 15:07:43;;;;;;;3.77;1.40;;;;;;;;;;5095527;28;20549;-60
2023/01/16 15:10:13;;;;;;;2.00;1.40;;;;;;;;;;5086485;28;20852;-60
2023/01/16 15:12:41;;;;;;;3.50;1.70;;;;;;;;;;5082362;28;20477;-60
2023/01/16 15:15:21;;;;;;;1.53;1.43;;;;;;;;;;5075363;28;20459;-60
2023/01/16 15:23:22;;;;;;;3.67;1.48;;;;;;;;;;5095115;28;20598;-60
2023/01/16 15:25:59;;;;;;;1.63;1.23;;;;;;;;;;5094098;28;20218;-59
2023/01/16 15:28:31;;;;;;;3.30;1.50;;;;;;;;;;5093910;28;20464;-59
2023/01/16 15:31:01;;;;;;;2.75;1.35;;;;;;;;;;5094927;28;20449;-60
2023/01/16 15:33:47;;;;;;;2.47;1.42;;;;;;;;;;5094727;28;20224;-60
2023/01/16 15:36:25;;;;;;;1.73;1.15;;;;;;;;;;5093481;28;20549;-60
2023/01/16 15:38:54;;;;;;;2.43;1.20;;;;;;;;;;5094914;28;20616;-60
2023/01/16 15:46:32;;;;;;;5.50;2.63;;;;;;;;;;5094808;28;20449;-60
2023/01/16 15:47:03;;;;;;;3.40;1.85;;;;;;;;;;5095063;28;20194;-59
2023/01/16 15:49:31;;;;;;;1.30;1.10;;;;;;;;;;5094779;28;20191;-60
2023/01/16 15:51:59;;;;;;;2.30;1.50;;;;;;;;;;5094572;28;20457;-60
2023/01/16 15:54:27;;;;;;;1.80;1.35;;;;;;;;;;5094424;28;20215;-59
2023/01/16 15:56:55;;;;;;;2.85;1.90;;;;;;;;;;5094413;28;20193;-59
2023/01/16 15:59:24;;;;;;;2.00;1.50;;;;;;;;;;5094132;28;20227;-60
2023/01/16 16:01:51;;;;;;;1.20;1.10;;;;;;;;;;5094424;28;20449;-60
2023/01/16 16:04:18;;;;;;;3.90;1.70;;;;;;;;;;5094255;28;20231;-60
2023/01/16 16:06:46;;;;;;;4.30;1.80;;;;;;;;;;5094207;28;20546;-59
2023/01/16 16:09:17;;;;;;;3.35;2.90;;;;;;;;;;5093806;28;20646;-60
2023/01/16 16:11:54;;;;;;;2.78;1.67;;;;;;;;;;5094017;28;20648;-60
2023/01/16 16:20:25;;;;;;;2.70;1.40;;;;;;;;;;5093821;28;20329;-60
2023/01/16 16:22:53;;;;;;;3.92;1.70;;;;;;;;;;5090522;28;20619;-59
2023/01/16 16:25:27;;;;;;;2.05;1.55;;;;;;;;;;5093805;28;20222;-60
2023/01/16 16:27:55;;;;;;;4.72;1.85;;;;;;;;;;5093812;28;20197;-60
2023/01/16 16:30:24;;;;;;;3.70;1.75;;;;;;;;;;5093663;28;20197;-60
2023/01/16 16:32:51;;;;;;;1.30;1.20;;;;;;;;;;5093585;28;20276;-60
2023/01/16 16:35:19;;;;;;;5.35;1.95;;;;;;;;;;5093739;28;20206;-60
2023/01/16 16:37:46;;;;;;;2.20;1.33;;;;;;;;;;5093673;28;20277;-60
2023/01/16 16:40:14;;;;;;;2.15;1.30;;;;;;;;;;5093525;28;20273;-60
2023/01/16 16:42:55;;;;;;;1.20;1.10;;;;;;;;;;5093436;28;20294;-59